• Join FlightAware (Why Join?)
  • Login
  • US Flag 
02:47PM EDT


 

Airport Tracker/Info


-or-


 

Live Flight TrackerFlight Track Log ✈ EJA122 ✈ 09-Jul-2013 ✈ KSAV - KBDL

Flight Track Log - Related Links

Times and Time Zones

All times are in EDT time to prevent confusion due to time zone crossing. See the EJA122 flight status page for this flight to view local times or setup timezone preferences in your user account.

Time Position Orientation Groundspeed Altitude Reporting Facility
EDT Latitude Longitude Course Direction KTS MPH feet Rate Location/Type
03:30PM 32.1311 -81.1139 56° Northeast 224 258 3,400  Level Jacksonville Center
03:31PM 32.1636 -81.0569 56° Northeast 236 272 5,400 2,400 Climbing Jacksonville Center
03:32PM 32.2189 -80.9822 49° Northeast 268 308 8,200 2,340 Climbing Jacksonville Center
03:33PM 32.2661 -80.9197 48° Northeast 275 316 10,100 1,620 Climbing Jacksonville Center
03:34PM 32.3231 -80.8397 50° Northeast 282 325 11,500 1,200 Climbing Jacksonville Center
03:35PM 32.3764 -80.7672 49° Northeast 304 350 12,600 1,140 Climbing Jacksonville Center
03:36PM 32.4436 -80.6722 50° Northeast 330 380 13,800 1,200 Climbing Jacksonville Center
03:37PM 32.5067 -80.5844 50° Northeast 330 380 15,000 1,140 Climbing Jacksonville Center
03:38PM 32.5678 -80.4967 50° Northeast 343 395 16,100 1,200 Climbing Jacksonville Center
03:39PM 32.6328 -80.4061 50° Northeast 348 400 17,400 1,200 Climbing Jacksonville Center
03:40PM 32.6956 -80.3181 50° Northeast 348 400 18,500 1,200 Climbing Jacksonville Center
03:41PM 32.7586 -80.2297 50° Northeast 348 400 19,800 1,200 Climbing Jacksonville Center
03:42PM 32.8192 -80.1414 51° Northeast 348 400 21,000 1,140 Climbing Jacksonville Center
03:43PM 32.8842 -80.0528 49° Northeast 348 400 22,100 1,080 Climbing Jacksonville Center
03:44PM 32.9639 -79.9836 36° Northeast 343 395 23,200 1,080 Climbing Jacksonville Center
03:45PM 33.0481 -79.9239 31° Northeast 348 400 24,300 1,080 Climbing Jacksonville Center
03:46PM 33.1322 -79.8639 31° Northeast 348 400 25,400 960 Climbing Jacksonville Center
03:47PM 33.2183 -79.8014 31° Northeast 355 409 26,300 900 Climbing Jacksonville Center
03:48PM 33.3044 -79.7386 31° Northeast 355 409 27,300 960 Climbing Jacksonville Center
03:49PM 33.3906 -79.6736 32° Northeast 355 409 28,300 900 Climbing Jacksonville Center
03:50PM 33.4786 -79.6106 31° Northeast 355 409 29,200 900 Climbing Jacksonville Center
03:51PM 33.5647 -79.5475 31° Northeast 355 409 30,100 840 Climbing Jacksonville Center
03:52PM 33.6528 -79.4844 31° Northeast 360 414 30,900 660 Climbing Jacksonville Center
03:53PM 33.7264 -79.4292 32° Northeast 355 409 31,500 540 Climbing Jacksonville Center
03:54PM 33.8142 -79.3631 32° Northeast 355 409 32,000 540 Climbing Jacksonville Center
03:55PM 33.9042 -79.2994 30° Northeast 355 409 32,600 540 Climbing Jacksonville Center
03:58PM 34.1194 -79.1364 32° Northeast 375 432 33,900 540 Climbing Washington Center
03:59PM 34.2089 -79.0697 32° Northeast 375 432 34,500 540 Climbing Washington Center
04:00PM 34.2983 -79.0058 31° Northeast 387 445 35,000 240 Climbing Washington Center
04:01PM 34.3900 -78.9342 33° Northeast 382 440 35,000  Level Washington Center
04:02PM 34.4839 -78.8675 30° Northeast 382 440 35,000  Level Washington Center
04:03PM 34.5883 -78.7808 34° Northeast 402 463 35,000  Level Washington Center
04:04PM 34.6864 -78.7036 33° Northeast 407 468 35,000  Level Washington Center
04:05PM 34.7822 -78.6317 32° Northeast 407 468 35,000  Level Washington Center
04:06PM 34.8969 -78.5447 32° Northeast 407 468 35,000  Level Washington Center
04:07PM 34.9947 -78.4697 32° Northeast 407 468 35,000  Level Washington Center
04:08PM 35.0947 -78.3919 32° Northeast 417 480 35,000  Level Washington Center
04:09PM 35.1925 -78.3114 34° Northeast 417 480 35,000  Level Washington Center
04:10PM 35.2964 -78.2336 31° Northeast 422 486 35,000  Level Washington Center
04:11PM 35.3964 -78.1553 33° Northeast 422 486 35,000  Level Washington Center
04:12PM 35.4958 -78.0794 32° Northeast 422 486 35,000  Level Washington Center
04:13PM 35.5978 -78.0008 32° Northeast 422 486 35,000  Level Washington Center
04:14PM 35.6994 -77.9219 32° Northeast 422 486 35,000  Level Washington Center
04:15PM 35.8011 -77.8431 32° Northeast 422 486 35,000  Level Washington Center
04:16PM 35.9028 -77.7639 32° Northeast 422 486 35,000  Level Washington Center
04:17PM 36.0022 -77.6844 33° Northeast 422 486 35,000  Level Washington Center
04:18PM 36.1019 -77.5919 37° Northeast 422 486 35,000  Level Washington Center
04:19PM 36.1972 -77.5017 37° Northeast 432 497 35,000  Level Washington Center
04:20PM 36.2903 -77.4139 37° Northeast 432 497 35,000  Level Washington Center
04:21PM 36.3836 -77.3231 38° Northeast 427 491 35,000  Level Washington Center
04:22PM 36.4786 -77.2347 37° Northeast 427 491 35,000  Level Washington Center
04:23PM 36.5778 -77.1439 36° Northeast 427 491 35,000  Level Washington Center
04:24PM 36.6708 -77.0550 37° Northeast 427 491 35,000  Level Washington Center
04:25PM 36.7636 -76.9661 37° Northeast 427 491 35,000  Level Washington Center
04:26PM 36.8586 -76.8794 36° Northeast 421 484 35,000  Level Washington Center
04:27PM 36.9533 -76.7953 35° Northeast 416 479 35,000  Level Washington Center
04:28PM 37.0417 -76.7161 36° Northeast 416 479 35,000  Level Washington Center
04:29PM 37.1364 -76.6261 37° Northeast 421 484 35,000  Level Washington Center
04:30PM 37.2331 -76.5389 36° Northeast 421 484 35,000  Level Washington Center
04:31PM 37.3297 -76.4511 36° Northeast 421 484 35,000  Level Washington Center
04:32PM 37.4261 -76.3633 36° Northeast 426 490 35,000  Level Washington Center
04:33PM 37.5267 -76.2753 35° Northeast 426 490 35,000  Level Washington Center
04:34PM 37.6211 -76.1869 37° Northeast 431 496 35,000  Level Washington Center
04:35PM 37.7300 -76.0958 33° Northeast 431 496 35,000  Level Washington Center
04:36PM 37.8158 -76.0072 39° Northeast 431 496 35,000  Level Washington Center
04:37PM 37.9244 -75.9050 37° Northeast 431 496 35,000  Level Washington Center
04:38PM 38.0019 -75.8317 37° Northeast 437 503 35,000  Level Washington Center
04:39PM 38.1189 -75.7211 37° Northeast 437 503 35,000  Level Washington Center
04:40PM 38.2169 -75.6286 37° Northeast 437 503 35,000  Level Washington Center
04:41PM 38.2942 -75.5547 37° Northeast 432 497 35,000  Level Washington Center
04:42PM 38.4067 -75.4592 34° Northeast 432 497 35,000  Level Washington Center
04:43PM 38.5086 -75.3689 35° Northeast 432 497 35,000  Level Washington Center
04:44PM 38.6106 -75.2861 32° Northeast 432 497 35,000  Level Washington Center
04:45PM 38.7125 -75.1925 36° Northeast 443 510 35,000  Level Washington Center
04:46PM 38.8142 -75.1014 35° Northeast 443 510 35,000  Level Washington Center
04:47PM 38.9161 -75.0153 33° Northeast 443 510 35,000  Level Washington Center
04:48PM 39.0178 -74.9236 35° Northeast 443 510 35,000  Level Washington Center
04:49PM 39.1192 -74.8344 34° Northeast 443 510 35,000  Level Washington Center
04:50PM 39.2208 -74.7450 34° Northeast 443 510 35,000  Level Washington Center
04:51PM 39.3222 -74.6553 34° Northeast 443 510 35,000  Level Washington Center
04:52PM 39.4214 -74.5625 36° Northeast 443 510 35,000  Level Washington Center
04:53PM 39.5475 -74.4511 34° Northeast 460 529 35,000  Level New York Center
04:54PM 39.6375 -74.3697 35° Northeast 460 529 35,000 -660 Level New York Center
04:55PM 39.7406 -74.2750 35° Northeast 460 529 33,700 -1,860 Descending New York Center
04:56PM 39.8433 -74.1828 35° Northeast 453 521 31,300 -2,400 Descending New York Center
04:57PM 39.9417 -74.0928 35° Northeast 459 528 28,900 -2,340 Descending New York Center
04:58PM 40.0400 -74.0056 34° Northeast 453 521 26,600 -1,920 Descending New York Center
04:59PM 40.1386 -73.9122 36° Northeast 453 521 25,000 -900 Descending New York Center
05:00PM 40.2408 -73.8217 34° Northeast 453 521 24,900 -720 Descending New York Center
05:01PM 40.3497 -73.7206 35° Northeast 453 521 23,700 -1,320 Descending New York Center
05:02PM 40.4500 -73.6292 35° Northeast 448 516 22,300 -1,320 Descending New York Center
05:04PM 40.6161 -73.4653 37° Northeast 447 514 20,000 -1,200 Descending Boston Center
05:05PM 40.7231 -73.3739 33° Northeast 427 491 19,000 -540 Descending Boston Center
05:06PM 40.8156 -73.2847 36° Northeast 421 484 19,000  Level Boston Center
05:07PM 40.9017 -73.1814 42° Northeast 416 479 19,000 -600 Level Boston Center
05:08PM 41.0044 -73.0617 41° Northeast 411 473 17,800 -1,680 Descending Boston Center
05:09PM 41.0861 -72.9661 41° Northeast 406 467 15,400 -2,340 Descending Boston Center
05:10PM 41.1261 -72.9194 41° Northeast 386 444 14,300 -2,160 Descending Boston Center
05:10PM 41.1972 -72.8344 42° Northeast 372 428 12,300 -2,220 Descending Boston Center
05:11PM 41.2411 -72.7797 43° Northeast 377 434 11,100 -840 Descending Boston Center
05:12PM 41.3183 -72.7164 32° Northeast 346 398 11,000 -480 Descending Boston Center
05:13PM 41.4061 -72.7031 North 315 362 10,200 -660 Descending Boston Center
05:14PM 41.4936 -72.6839 North 315 362 9,700 -900 Descending Boston Center
05:15PM 41.5686 -72.6703 North 287 330 8,400 -1,440 Descending Boston Center
05:15PM 41.6061 -72.6622 North 277 319 7,600 -1,500 Descending Boston Center
05:16PM 41.6458 -72.6539 North 276 318 6,900 -1,620 Descending Boston Center
05:17PM 41.6894 -72.6431 11° North 271 312 5,800 -1,140 Descending Boston Center
05:18PM 41.7689 -72.6294 North 254 292 5,000 -540 Descending Boston Center
05:19PM 41.8333 -72.6183 North 221 254 4,700 -840 Descending Boston Center
05:20PM 41.8939 -72.6075 North 217 250 3,300 -1,080 Descending Boston Center
05:21PM 41.9481 -72.5992 North 201 231 2,600 -1,080 Descending Boston Center
05:22PM 41.9708 -72.6494 301° West 139 160 1,000 -1,080 Descending Boston Center
05:23PM 41.9519 -72.6717 221° Southwest 99 114 200 -840 Descending Boston Center
05:26PM 41.9333 -72.6833 45° Northeast  Level FlightAware Approximate